createdAt,value
2023-03-04T00:00:02.307Z,69.95
2023-03-04T00:02:35.048Z,69.90
2023-03-04T00:05:09.753Z,69.87
2023-03-04T00:07:42.452Z,70.09
2023-03-04T00:10:15.176Z,70.04
2023-03-04T00:12:47.868Z,69.92
2023-03-04T00:15:20.544Z,70.00
2023-03-04T00:17:53.327Z,69.95
2023-03-04T00:20:27.478Z,69.83
2023-03-04T00:23:00.244Z,69.95
2023-03-04T00:25:33.633Z,69.86
2023-03-04T00:28:06.539Z,69.68
2023-03-04T00:30:39.177Z,69.80
2023-03-04T00:33:12.058Z,69.39
2023-03-04T00:35:46.175Z,69.75
2023-03-04T00:38:19.010Z,69.75
2023-03-04T00:40:51.673Z,69.65
2023-03-04T00:43:24.613Z,69.90
2023-03-04T00:45:57.409Z,69.92
2023-03-04T00:48:30.359Z,69.99
2023-03-04T00:51:04.483Z,69.92
2023-03-04T00:53:37.148Z,70.02
2023-03-04T00:56:09.799Z,69.93
2023-03-04T00:58:42.434Z,69.96
2023-03-04T01:01:15.578Z,70.20
2023-03-04T01:03:48.460Z,69.87
2023-03-04T01:06:22.520Z,69.99
2023-03-04T01:08:55.209Z,70.00
2023-03-04T01:11:27.890Z,70.15
2023-03-04T01:14:00.659Z,70.17
2023-03-04T01:16:33.333Z,70.20
2023-03-04T01:19:06.091Z,70.50
2023-03-04T01:21:40.203Z,70.44
2023-03-04T01:24:13.002Z,70.18
2023-03-04T01:26:45.675Z,70.43
2023-03-04T01:29:18.496Z,70.24
2023-03-04T01:31:51.163Z,70.29
2023-03-04T01:34:23.859Z,70.07
2023-03-04T01:36:57.942Z,70.15
2023-03-04T01:39:30.921Z,70.27
2023-03-04T01:42:03.645Z,70.16
2023-03-04T01:44:36.348Z,70.43
2023-03-04T01:47:10.071Z,70.29
2023-03-04T01:49:42.957Z,70.17
2023-03-04T01:52:17.140Z,70.38
2023-03-04T01:54:50.136Z,70.44
2023-03-04T01:57:23.747Z,70.49
2023-03-04T02:00:16.346Z,70.46
2023-03-04T02:02:49.532Z,70.59
2023-03-04T02:05:23.056Z,70.40
2023-03-04T02:07:58.367Z,70.57
2023-03-04T02:10:31.445Z,70.42
2023-03-04T02:13:04.725Z,70.53
2023-03-04T02:15:37.555Z,70.37
2023-03-04T02:18:15.097Z,70.35
2023-03-04T02:20:53.783Z,70.32
2023-03-04T02:23:31.812Z,70.43
2023-03-04T02:26:11.428Z,70.49
2023-03-04T02:28:44.700Z,70.48
2023-03-04T02:31:23.033Z,70.63
2023-03-04T02:33:57.349Z,70.48
2023-03-04T02:36:30.455Z,70.70
2023-03-04T02:39:04.856Z,70.53
2023-03-04T02:41:39.223Z,71.00
2023-03-04T02:44:17.297Z,70.91
2023-03-04T02:46:50.655Z,70.77
2023-03-04T02:49:24.011Z,70.81
2023-03-04T02:52:00.467Z,70.84
2023-03-04T02:54:33.131Z,70.70
2023-03-04T02:57:08.142Z,70.81
2023-03-04T02:59:41.532Z,70.52
2023-03-04T03:02:14.230Z,70.71
2023-03-04T03:04:46.900Z,70.48
2023-03-04T03:07:19.949Z,70.59
2023-03-04T03:09:52.592Z,70.57
2023-03-04T03:12:26.611Z,70.71
2023-03-04T03:14:59.360Z,70.98
2023-03-04T03:17:32.080Z,70.79
2023-03-04T03:20:05.207Z,71.00
2023-03-04T03:22:38.022Z,70.80
2023-03-04T03:25:11.464Z,70.79
2023-03-04T03:27:45.574Z,71.36
2023-03-04T03:30:19.621Z,71.16
2023-03-04T03:32:52.500Z,71.06
2023-03-04T03:35:25.202Z,70.95
2023-03-04T03:37:57.962Z,71.17
2023-03-04T03:40:30.732Z,71.08
2023-03-04T03:43:04.948Z,71.39
2023-03-04T03:45:39.021Z,71.38
2023-03-04T03:48:11.704Z,71.57
2023-03-04T03:50:44.329Z,71.52
2023-03-04T03:53:17.103Z,71.52
2023-03-04T03:55:49.802Z,71.25
2023-03-04T03:58:24.187Z,71.63
2023-03-04T04:00:58.463Z,71.49
2023-03-04T04:03:31.438Z,71.44
2023-03-04T04:06:04.309Z,71.45
2023-03-04T04:08:37.101Z,71.80
2023-03-04T04:11:10.433Z,71.34
2023-03-04T04:13:44.607Z,71.35
2023-03-04T04:16:17.279Z,71.38
2023-03-04T04:18:50.031Z,71.34
2023-03-04T04:21:22.736Z,71.17
2023-03-04T04:23:55.500Z,71.37
2023-03-04T04:26:28.293Z,71.16
2023-03-04T04:29:02.600Z,71.33
2023-03-04T04:31:35.536Z,71.18
2023-03-04T04:34:08.205Z,70.94
2023-03-04T04:36:40.946Z,71.07
2023-03-04T04:39:13.706Z,70.96
2023-03-04T04:41:46.922Z,71.04
2023-03-04T04:44:21.254Z,71.09
2023-03-04T04:46:54.046Z,71.14
2023-03-04T04:49:26.827Z,71.05
2023-03-04T04:51:59.833Z,70.93
2023-03-04T04:54:32.788Z,71.05
2023-03-04T04:57:05.433Z,70.87
2023-03-04T04:59:39.535Z,70.94
2023-03-04T05:02:12.220Z,70.66
2023-03-04T05:04:44.943Z,70.87
2023-03-04T05:07:17.736Z,70.81
2023-03-04T05:09:50.459Z,70.72
2023-03-04T05:12:23.174Z,71.18
2023-03-04T05:14:57.566Z,70.60
2023-03-04T05:17:30.226Z,70.78
2023-03-04T05:20:04.362Z,70.75
2023-03-04T05:22:37.104Z,70.77
2023-03-04T05:25:10.727Z,70.72
2023-03-04T05:27:43.461Z,70.49
2023-03-04T05:30:17.836Z,70.73
2023-03-04T05:32:50.539Z,70.62
2023-03-04T05:35:23.236Z,71.03
2023-03-04T05:37:56.119Z,71.29
2023-03-04T05:40:28.883Z,71.46
2023-03-04T05:43:01.543Z,71.31
2023-03-04T05:45:35.660Z,71.87
2023-03-04T05:48:09.370Z,71.92
2023-03-04T05:50:42.123Z,72.02
2023-03-04T05:53:15.110Z,72.30
2023-03-04T05:55:48.380Z,72.83
2023-03-04T05:58:21.191Z,72.86
2023-03-04T06:00:55.392Z,73.13
2023-03-04T06:03:28.105Z,72.63
2023-03-04T06:06:00.896Z,72.98
2023-03-04T06:08:33.731Z,72.93
2023-03-04T06:11:06.863Z,73.04
2023-03-04T06:13:40.232Z,73.07
2023-03-04T06:16:14.420Z,72.98
2023-03-04T06:18:47.146Z,73.06
2023-03-04T06:21:19.886Z,73.41
2023-03-04T06:23:52.590Z,73.61
2023-03-04T06:26:25.325Z,73.58
2023-03-04T06:28:58.012Z,73.92
2023-03-04T06:31:32.147Z,73.87
2023-03-04T06:34:04.846Z,73.98
2023-03-04T06:36:37.602Z,74.21
2023-03-04T06:39:10.331Z,74.07
2023-03-04T06:41:43.055Z,74.41
2023-03-04T06:44:15.846Z,74.45
2023-03-04T06:46:50.209Z,74.54
2023-03-04T06:49:22.881Z,74.52
2023-03-04T06:51:55.539Z,74.63
2023-03-04T06:54:28.289Z,74.62
2023-03-04T06:57:01.041Z,74.59
2023-03-04T06:59:33.877Z,74.49
2023-03-04T07:02:08.042Z,74.51
2023-03-04T07:04:41.214Z,74.68
2023-03-04T07:07:13.984Z,74.85
2023-03-04T07:09:46.650Z,74.55
2023-03-04T07:12:19.547Z,74.76
2023-03-04T07:14:52.202Z,74.89
2023-03-04T07:17:26.407Z,74.89
2023-03-04T07:19:59.033Z,74.61
2023-03-04T07:22:31.797Z,74.80
2023-03-04T07:25:04.871Z,75.05
2023-03-04T07:27:38.684Z,74.51
2023-03-04T07:30:12.255Z,74.71
2023-03-04T07:32:46.626Z,74.48
2023-03-04T07:35:19.402Z,74.33
2023-03-04T07:37:52.137Z,74.50
2023-03-04T07:40:25.018Z,74.50
2023-03-04T07:42:57.809Z,74.99
2023-03-04T07:45:30.570Z,75.00
2023-03-04T07:48:04.785Z,74.56
2023-03-04T07:50:37.545Z,74.80
2023-03-04T07:53:10.386Z,75.06
2023-03-04T07:55:43.035Z,75.23
2023-03-04T07:58:20.005Z,75.17
2023-03-04T08:00:52.798Z,74.85
2023-03-04T08:03:26.843Z,75.55
2023-03-04T08:05:59.574Z,74.58
2023-03-04T08:08:32.243Z,74.82
2023-03-04T08:11:05.559Z,75.27
2023-03-04T08:13:38.442Z,75.20
2023-03-04T08:16:13.217Z,74.58
2023-03-04T08:18:49.208Z,75.25
2023-03-04T08:21:22.959Z,75.29
2023-03-04T08:23:56.085Z,75.33
2023-03-04T08:26:31.458Z,74.78
2023-03-04T08:29:05.806Z,74.63
2023-03-04T08:31:39.448Z,75.04
2023-03-04T08:34:14.811Z,74.66
2023-03-04T08:36:47.612Z,74.54
2023-03-04T08:39:20.801Z,74.37
2023-03-04T08:41:53.584Z,74.00
2023-03-04T08:44:26.847Z,74.16
2023-03-04T08:46:59.927Z,73.73
2023-03-04T08:49:33.970Z,73.56
2023-03-04T08:52:06.759Z,73.31
2023-03-04T08:54:39.437Z,73.24
2023-03-04T08:57:12.079Z,72.61
2023-03-04T08:59:44.788Z,72.29
2023-03-04T09:02:17.915Z,72.83
2023-03-04T09:04:51.938Z,72.64
2023-03-04T09:07:25.340Z,72.89
2023-03-04T09:09:58.068Z,72.55
2023-03-04T09:12:30.785Z,72.75
2023-03-04T09:15:11.400Z,73.11
2023-03-04T09:17:44.611Z,73.61
2023-03-04T09:20:19.779Z,73.81
2023-03-04T09:22:52.507Z,73.84
2023-03-04T09:25:25.200Z,73.40
2023-03-04T09:27:57.914Z,73.36
2023-03-04T09:30:30.704Z,73.58
2023-03-04T09:33:03.546Z,72.98
2023-03-04T09:35:37.708Z,72.88
2023-03-04T09:38:10.532Z,72.48
2023-03-04T09:40:44.377Z,72.98
2023-03-04T09:43:20.770Z,72.84
2023-03-04T09:45:56.599Z,72.46
2023-03-04T09:48:31.323Z,72.46
2023-03-04T09:51:12.231Z,72.90
2023-03-04T09:53:48.770Z,73.38
2023-03-04T09:56:21.525Z,73.41
2023-03-04T09:59:01.094Z,72.80
2023-03-04T10:01:37.371Z,73.06
2023-03-04T10:04:14.187Z,72.77
2023-03-04T10:06:54.393Z,73.23
2023-03-04T10:09:29.722Z,73.01
2023-03-04T10:12:04.140Z,73.49
2023-03-04T10:14:39.054Z,73.22
2023-03-04T10:17:14.966Z,73.30
2023-03-04T10:19:56.838Z,74.18
2023-03-04T10:22:35.695Z,72.43
2023-03-04T10:25:26.938Z,72.04
2023-03-04T10:28:02.571Z,73.21
2023-03-04T10:30:40.401Z,73.26
2023-03-04T10:33:14.113Z,72.35
2023-03-04T10:35:49.610Z,72.23
2023-03-04T10:38:24.703Z,72.74
2023-03-04T10:40:59.137Z,72.16
2023-03-04T10:43:31.882Z,72.47
2023-03-04T10:46:05.061Z,71.23
2023-03-04T10:48:39.186Z,71.51
2023-03-04T10:51:13.862Z,72.07
2023-03-04T10:53:48.643Z,71.92
2023-03-04T10:56:35.793Z,72.79
2023-03-04T10:59:32.520Z,72.81
2023-03-04T11:02:15.409Z,73.13
2023-03-04T11:04:53.544Z,72.39
2023-03-04T11:07:27.414Z,71.69
2023-03-04T11:10:10.551Z,72.49
2023-03-04T11:12:43.551Z,70.96
2023-03-04T11:15:27.273Z,71.86
2023-03-04T11:18:02.543Z,71.58
2023-03-04T11:20:38.143Z,71.33
2023-03-04T11:23:13.973Z,71.86
2023-03-04T11:25:51.051Z,72.06
2023-03-04T11:28:26.092Z,72.81
2023-03-04T11:31:00.527Z,73.24
2023-03-04T11:33:37.497Z,72.29
2023-03-04T11:36:22.146Z,71.82
2023-03-04T11:38:55.286Z,71.46
2023-03-04T11:41:32.223Z,70.43
2023-03-04T11:44:07.061Z,70.91
2023-03-04T11:47:00.765Z,72.32
2023-03-04T11:49:49.008Z,72.36
2023-03-04T11:52:28.851Z,72.30
2023-03-04T11:55:07.519Z,71.17
2023-03-04T11:57:46.917Z,71.46
2023-03-04T12:00:32.051Z,71.03
2023-03-04T12:03:16.192Z,71.83
2023-03-04T12:05:53.856Z,70.49
2023-03-04T12:08:34.198Z,71.38
2023-03-04T12:11:10.414Z,71.45
2023-03-04T12:13:57.910Z,72.08
2023-03-04T12:16:40.282Z,71.76
2023-03-04T12:19:19.376Z,72.57
2023-03-04T12:22:00.966Z,73.12
2023-03-04T12:24:43.308Z,72.26
2023-03-04T12:27:22.468Z,71.24
2023-03-04T12:29:58.471Z,69.72
2023-03-04T12:32:37.391Z,70.29
2023-03-04T12:35:25.512Z,68.49
2023-03-04T12:38:13.356Z,69.15
2023-03-04T12:40:49.763Z,68.98
2023-03-04T12:43:43.428Z,71.18
2023-03-04T12:46:22.792Z,67.01
2023-03-04T12:49:04.734Z,68.34
2023-03-04T12:51:41.774Z,69.45
2023-03-04T12:54:19.799Z,68.59
2023-03-04T12:56:55.040Z,69.80
2023-03-04T12:59:30.171Z,71.77
2023-03-04T13:02:11.186Z,70.89
2023-03-04T13:04:53.612Z,71.50
2023-03-04T13:07:31.115Z,70.62
2023-03-04T13:10:08.682Z,69.47
2023-03-04T13:12:48.592Z,70.02
2023-03-04T13:15:38.055Z,69.66
2023-03-04T13:18:31.772Z,69.85
2023-03-04T13:21:17.395Z,69.24
2023-03-04T13:23:50.445Z,71.39
2023-03-04T13:26:31.024Z,67.91
2023-03-04T13:29:24.789Z,69.63
2023-03-04T13:32:02.081Z,69.39
2023-03-04T13:34:45.824Z,67.30
2023-03-04T13:37:30.544Z,68.32
2023-03-04T13:40:33.309Z,68.48
2023-03-04T13:43:26.839Z,70.48
2023-03-04T13:45:59.485Z,68.27
2023-03-04T13:48:36.433Z,63.62
2023-03-04T13:51:28.653Z,69.91
2023-03-04T13:54:14.201Z,70.54
2023-03-04T13:56:47.845Z,69.09
2023-03-04T13:59:27.622Z,69.34
2023-03-04T14:02:02.140Z,68.46
2023-03-04T14:04:36.293Z,70.79
2023-03-04T14:07:20.121Z,71.98
2023-03-04T14:10:10.501Z,69.97
2023-03-04T14:12:46.073Z,70.04
2023-03-04T14:15:23.301Z,70.38
2023-03-04T14:17:57.282Z,69.99
2023-03-04T14:20:31.110Z,70.42
2023-03-04T14:23:05.025Z,66.33
2023-03-04T14:25:38.459Z,64.67
2023-03-04T14:28:12.934Z,67.36
2023-03-04T14:30:52.345Z,66.21
2023-03-04T14:33:26.696Z,64.92
2023-03-04T14:36:00.451Z,66.37
2023-03-04T14:38:34.890Z,64.06
2023-03-04T14:41:08.992Z,67.61
2023-03-04T14:43:48.271Z,67.63
2023-03-04T14:46:21.628Z,62.87
2023-03-04T14:48:55.042Z,66.06
2023-03-04T14:51:37.837Z,66.70
2023-03-04T14:54:27.657Z,67.18
2023-03-04T14:57:02.580Z,67.25
2023-03-04T14:59:37.486Z,67.50
2023-03-04T15:02:19.800Z,68.01
2023-03-04T15:04:52.562Z,67.43
2023-03-04T15:07:29.061Z,70.51
2023-03-04T15:10:02.749Z,67.97
2023-03-04T15:12:36.609Z,66.57
2023-03-04T15:15:24.159Z,66.07
2023-03-04T15:18:01.609Z,67.20
2023-03-04T15:20:34.436Z,67.15
2023-03-04T15:23:09.935Z,67.88
2023-03-04T15:25:42.671Z,68.15
2023-03-04T15:28:18.003Z,67.82
2023-03-04T15:30:51.124Z,68.00
2023-03-04T15:33:26.008Z,68.96
2023-03-04T15:36:01.125Z,68.21
2023-03-04T15:38:33.836Z,68.50
2023-03-04T15:41:06.690Z,67.84
2023-03-04T15:43:39.688Z,67.58
2023-03-04T15:46:12.678Z,68.10
2023-03-04T15:48:46.880Z,67.90
2023-03-04T15:51:22.206Z,68.26
2023-03-04T15:53:55.623Z,68.96
2023-03-04T15:56:29.812Z,69.03
2023-03-04T15:59:04.738Z,68.55
2023-03-04T16:01:37.685Z,68.88
2023-03-04T16:04:12.859Z,69.10
2023-03-04T16:06:46.732Z,68.82
2023-03-04T16:09:19.821Z,68.13
2023-03-04T16:11:56.591Z,68.80
2023-03-04T16:14:29.281Z,69.60
2023-03-04T16:17:02.177Z,70.49
2023-03-04T16:19:36.641Z,70.43
2023-03-04T16:22:10.613Z,70.97
2023-03-04T16:24:43.445Z,69.55
2023-03-04T16:27:17.941Z,71.70
2023-03-04T16:29:51.315Z,71.42
2023-03-04T16:32:24.700Z,70.91
2023-03-04T16:34:58.986Z,71.08
2023-03-04T16:37:31.692Z,70.19
2023-03-04T16:40:05.084Z,69.82
2023-03-04T16:42:37.743Z,70.22
2023-03-04T16:45:13.420Z,69.72
2023-03-04T16:47:46.265Z,69.63
2023-03-04T16:50:21.836Z,69.53
2023-03-04T16:52:55.566Z,69.46
2023-03-04T16:55:29.151Z,69.15
2023-03-04T16:58:01.856Z,69.66
2023-03-04T17:00:34.581Z,68.64
2023-03-04T17:03:07.344Z,68.52
2023-03-04T17:05:41.477Z,68.79
2023-03-04T17:08:14.140Z,68.34
2023-03-04T17:10:46.955Z,68.36
2023-03-04T17:13:19.620Z,68.09
2023-03-04T17:15:52.313Z,67.94
2023-03-04T17:18:25.478Z,68.14
2023-03-04T17:21:04.837Z,68.95
2023-03-04T17:23:37.547Z,68.31
2023-03-04T17:26:10.482Z,68.49
2023-03-04T17:28:43.562Z,67.61
2023-03-04T17:31:17.544Z,67.93
2023-03-04T17:33:50.398Z,68.39
2023-03-04T17:36:24.523Z,68.35
2023-03-04T17:38:57.266Z,68.51
2023-03-04T17:41:30.344Z,68.35
2023-03-04T17:44:03.110Z,68.31
2023-03-04T17:46:35.960Z,68.18
2023-03-04T17:49:08.690Z,68.42
2023-03-04T17:51:42.874Z,68.38
2023-03-04T17:54:15.588Z,68.14
2023-03-04T17:56:48.246Z,68.36
2023-03-04T17:59:20.981Z,68.21
2023-03-04T18:01:54.387Z,68.03
2023-03-04T18:04:27.101Z,68.18
2023-03-04T18:07:01.191Z,67.97
2023-03-04T18:09:33.964Z,68.18
2023-03-04T18:12:07.108Z,67.89
2023-03-04T18:14:39.812Z,68.37
2023-03-04T18:17:12.803Z,67.89
2023-03-04T18:19:45.433Z,67.74
2023-03-04T18:22:19.567Z,67.90
2023-03-04T18:24:52.276Z,68.09
2023-03-04T18:27:25.058Z,68.26
2023-03-04T18:29:58.912Z,68.02
2023-03-04T18:32:45.541Z,68.51
2023-03-04T18:35:23.910Z,68.75
2023-03-04T18:37:58.291Z,68.89
2023-03-04T18:40:31.736Z,68.51
2023-03-04T18:43:04.739Z,68.95
2023-03-04T18:45:37.570Z,68.59
2023-03-04T18:48:10.396Z,68.88
2023-03-04T18:50:43.132Z,68.22
2023-03-04T18:53:17.344Z,68.74
2023-03-04T18:55:50.020Z,68.34
2023-03-04T18:58:22.745Z,68.21
2023-03-04T19:00:55.738Z,68.14
2023-03-04T19:03:30.240Z,68.18
2023-03-04T19:06:02.931Z,68.59
2023-03-04T19:08:37.084Z,68.82
2023-03-04T19:11:09.832Z,68.43
2023-03-04T19:13:42.602Z,68.96
2023-03-04T19:16:15.717Z,68.25
2023-03-04T19:18:48.462Z,68.69
2023-03-04T19:21:21.208Z,68.46
2023-03-04T19:23:55.445Z,68.64
2023-03-04T19:26:28.237Z,68.72
2023-03-04T19:29:00.965Z,68.81
2023-03-04T19:31:33.705Z,69.04
2023-03-04T19:34:06.435Z,69.11
2023-03-04T19:36:39.209Z,69.32
2023-03-04T19:39:15.650Z,69.24
2023-03-04T19:41:48.391Z,69.56
2023-03-04T19:44:21.457Z,69.81
2023-03-04T19:46:54.130Z,70.55
2023-03-04T19:49:26.942Z,70.35
2023-03-04T19:51:59.780Z,71.32
2023-03-04T19:54:34.708Z,71.35
2023-03-04T19:57:07.372Z,71.87
2023-03-04T19:59:40.095Z,71.57
2023-03-04T20:02:12.837Z,72.32
2023-03-04T20:04:45.971Z,72.52
2023-03-04T20:07:19.111Z,72.58
2023-03-04T20:09:55.330Z,72.06
2023-03-04T20:12:28.095Z,72.48
2023-03-04T20:15:00.896Z,72.21
2023-03-04T20:17:33.723Z,72.59
2023-03-04T20:20:10.660Z,72.93
2023-03-04T20:22:43.393Z,72.54
2023-03-04T20:25:17.504Z,72.93
2023-03-04T20:27:50.243Z,72.66
2023-03-04T20:30:23.074Z,72.03
2023-03-04T20:32:55.747Z,73.91
2023-03-04T20:35:28.849Z,73.66
2023-03-04T20:38:02.378Z,74.30
2023-03-04T20:40:37.074Z,75.09
2023-03-04T20:43:09.787Z,74.92
2023-03-04T20:45:42.558Z,74.38
2023-03-04T20:48:15.264Z,73.70
2023-03-04T20:50:48.073Z,73.47
2023-03-04T20:53:20.775Z,73.71
2023-03-04T20:55:54.985Z,74.72
2023-03-04T20:58:27.619Z,75.08
2023-03-04T21:01:00.365Z,74.62
2023-03-04T21:03:33.106Z,74.56
2023-03-04T21:06:06.797Z,73.26
2023-03-04T21:08:39.739Z,73.61
2023-03-04T21:11:14.509Z,72.23
2023-03-04T21:13:53.862Z,73.54
2023-03-04T21:16:27.695Z,73.42
2023-03-04T21:19:00.785Z,72.30
2023-03-04T21:21:33.474Z,73.03
2023-03-04T21:24:06.347Z,72.67
2023-03-04T21:26:40.611Z,71.84
2023-03-04T21:29:13.493Z,72.10
2023-03-04T21:31:47.862Z,71.21
2023-03-04T21:34:22.417Z,71.77
2023-03-04T21:36:55.131Z,68.99
2023-03-04T21:39:27.972Z,70.93
2023-03-04T21:42:02.053Z,70.58
2023-03-04T21:44:48.633Z,70.56
2023-03-04T21:47:22.659Z,71.29
2023-03-04T21:49:55.373Z,70.33
2023-03-04T21:52:28.114Z,69.93
2023-03-04T21:55:00.814Z,69.92
2023-03-04T21:57:34.930Z,69.28
2023-03-04T22:00:08.709Z,69.07
2023-03-04T22:02:41.454Z,69.37
2023-03-04T22:05:14.244Z,68.08
2023-03-04T22:07:47.488Z,68.60
2023-03-04T22:10:20.411Z,68.74
2023-03-04T22:12:54.547Z,68.82
2023-03-04T22:15:27.309Z,69.04
2023-03-04T22:18:00.324Z,69.04
2023-03-04T22:20:34.584Z,69.38
2023-03-04T22:23:07.852Z,69.22
2023-03-04T22:25:41.386Z,69.06
2023-03-04T22:28:15.656Z,69.16
2023-03-04T22:30:48.385Z,69.57
2023-03-04T22:33:21.089Z,69.03
2023-03-04T22:35:53.886Z,69.77
2023-03-04T22:38:26.633Z,70.19
2023-03-04T22:40:59.344Z,70.36
2023-03-04T22:43:33.622Z,70.82
2023-03-04T22:46:12.330Z,70.65
2023-03-04T22:48:45.085Z,69.76
2023-03-04T22:51:18.266Z,70.91
2023-03-04T22:53:51.562Z,69.99
2023-03-04T22:56:24.221Z,70.56
2023-03-04T22:58:58.341Z,70.33
2023-03-04T23:01:31.118Z,70.51
2023-03-04T23:04:03.937Z,71.12
2023-03-04T23:06:37.663Z,70.55
2023-03-04T23:09:10.744Z,70.69
2023-03-04T23:11:43.821Z,71.27
2023-03-04T23:14:18.019Z,71.43
2023-03-04T23:16:50.735Z,71.58
2023-03-04T23:19:23.494Z,70.91
2023-03-04T23:21:56.167Z,72.09
2023-03-04T23:24:29.513Z,71.38
2023-03-04T23:27:02.147Z,71.42
2023-03-04T23:29:36.343Z,71.18
2023-03-04T23:32:09.407Z,71.12
2023-03-04T23:34:42.234Z,70.71
2023-03-04T23:37:14.912Z,71.46
2023-03-04T23:39:47.670Z,71.21
2023-03-04T23:42:20.362Z,70.88
2023-03-04T23:44:54.751Z,70.74
2023-03-04T23:47:27.710Z,70.92
2023-03-04T23:50:00.455Z,71.00
2023-03-04T23:52:33.529Z,71.43
2023-03-04T23:55:07.076Z,71.12
2023-03-04T23:57:39.866Z,70.88
